createdAt,value
2022-10-09T00:01:28.082Z,11.67
2022-10-09T00:03:56.585Z,11.69
2022-10-09T00:06:26.148Z,11.62
2022-10-09T00:08:53.066Z,11.62
2022-10-09T00:11:26.539Z,11.59
2022-10-09T00:13:54.649Z,11.59
2022-10-09T00:16:22.846Z,11.62
2022-10-09T00:18:50.542Z,11.54
2022-10-09T00:21:26.001Z,11.60
2022-10-09T00:23:55.978Z,11.62
2022-10-09T00:26:23.229Z,11.60
2022-10-09T00:28:50.558Z,11.56
2022-10-09T00:31:21.034Z,11.50
2022-10-09T00:33:51.118Z,11.29
2022-10-09T00:36:21.084Z,11.29
2022-10-09T00:38:51.264Z,11.29
2022-10-09T00:41:23.901Z,11.25
2022-10-09T00:43:53.928Z,11.24
2022-10-09T00:46:27.254Z,11.26
2022-10-09T00:49:05.342Z,11.30
2022-10-09T00:51:33.788Z,11.36
2022-10-09T00:54:03.197Z,11.53
2022-10-09T00:56:30.082Z,11.43
2022-10-09T00:58:59.281Z,11.49
2022-10-09T01:01:26.444Z,11.49
2022-10-09T01:03:53.307Z,11.49
2022-10-09T01:06:45.498Z,11.46
2022-10-09T01:09:15.033Z,11.48
2022-10-09T01:12:32.758Z,11.38
2022-10-09T01:15:05.604Z,11.22
2022-10-09T01:17:59.235Z,11.14
2022-10-09T01:20:33.087Z,11.13
2022-10-09T01:23:17.003Z,11.10
2022-10-09T01:26:03.386Z,11.03
2022-10-09T01:28:31.098Z,10.93
2022-10-09T01:31:01.256Z,10.93
2022-10-09T01:33:29.689Z,11.00
2022-10-09T01:35:57.550Z,11.14
2022-10-09T01:38:25.025Z,11.39
2022-10-09T01:40:54.725Z,11.50
2022-10-09T01:43:21.844Z,11.63
2022-10-09T01:45:49.973Z,11.76
2022-10-09T01:48:22.091Z,11.91
2022-10-09T01:50:54.027Z,11.86
2022-10-09T01:53:21.578Z,11.78
2022-10-09T01:56:04.131Z,11.84
2022-10-09T01:58:37.887Z,11.86
2022-10-09T02:01:08.359Z,12.04
2022-10-09T02:03:36.642Z,11.86
2022-10-09T02:06:08.038Z,11.65
2022-10-09T02:08:37.221Z,11.54
2022-10-09T02:11:04.526Z,11.52
2022-10-09T02:13:32.858Z,11.40
2022-10-09T02:16:18.107Z,11.28
2022-10-09T02:18:48.511Z,11.36
2022-10-09T02:21:21.209Z,11.28
2022-10-09T02:23:51.735Z,11.38
2022-10-09T02:26:21.913Z,11.60
2022-10-09T02:28:52.105Z,11.77
2022-10-09T02:31:27.840Z,11.74
2022-10-09T02:33:58.663Z,11.87
2022-10-09T02:36:26.454Z,12.10
2022-10-09T02:38:54.996Z,12.34
2022-10-09T02:41:22.241Z,12.42
2022-10-09T02:43:49.405Z,12.62
2022-10-09T02:46:16.849Z,12.78
2022-10-09T02:48:43.791Z,12.91
2022-10-09T02:51:12.338Z,13.03
2022-10-09T02:53:39.195Z,13.11
2022-10-09T02:56:06.343Z,13.22
2022-10-09T02:58:34.706Z,13.17
2022-10-09T03:01:01.987Z,13.26
2022-10-09T03:03:28.938Z,13.26
2022-10-09T03:06:12.037Z,13.30
2022-10-09T03:08:41.710Z,13.33
2022-10-09T03:11:09.033Z,13.31
2022-10-09T03:13:36.047Z,13.34
2022-10-09T03:16:04.836Z,13.34
2022-10-09T03:18:32.170Z,13.33
2022-10-09T03:20:59.030Z,13.33
2022-10-09T03:23:26.239Z,13.30
2022-10-09T03:26:00.643Z,13.30
2022-10-09T03:28:27.941Z,13.27
2022-10-09T03:30:55.622Z,13.26
2022-10-09T03:33:22.767Z,13.27
2022-10-09T03:35:50.172Z,13.24
2022-10-09T03:38:17.386Z,13.23
2022-10-09T03:40:45.094Z,13.28
2022-10-09T03:43:12.013Z,13.26
2022-10-09T03:45:40.739Z,13.25
2022-10-09T03:48:08.364Z,13.23
2022-10-09T03:50:35.340Z,13.23
2022-10-09T03:53:02.435Z,13.25
2022-10-09T03:55:29.286Z,13.24
2022-10-09T03:57:56.143Z,13.28
2022-10-09T04:00:23.528Z,13.38
2022-10-09T04:02:51.002Z,13.41
2022-10-09T04:05:18.086Z,13.44
2022-10-09T04:07:45.093Z,13.52
2022-10-09T04:10:12.360Z,13.56
2022-10-09T04:12:39.255Z,13.56
2022-10-09T04:15:06.626Z,13.64
2022-10-09T04:17:33.724Z,13.57
2022-10-09T04:20:00.556Z,13.55
2022-10-09T04:22:27.412Z,13.54
2022-10-09T04:24:54.514Z,13.53
2022-10-09T04:27:21.380Z,13.49
2022-10-09T04:29:48.261Z,13.52
2022-10-09T04:32:15.388Z,13.44
2022-10-09T04:34:42.277Z,13.46
2022-10-09T04:37:09.135Z,13.48
2022-10-09T04:39:36.231Z,13.42
2022-10-09T04:42:03.117Z,13.37
2022-10-09T04:44:29.993Z,13.37
2022-10-09T04:46:57.222Z,13.37
2022-10-09T04:49:24.076Z,13.42
2022-10-09T04:51:50.931Z,13.39
2022-10-09T04:54:18.183Z,13.41
2022-10-09T04:56:45.035Z,13.41
2022-10-09T04:59:12.680Z,13.46
2022-10-09T05:01:39.889Z,13.42
2022-10-09T05:04:06.930Z,13.47
2022-10-09T05:06:33.804Z,13.44
2022-10-09T05:09:00.952Z,13.38
2022-10-09T05:11:27.833Z,13.35
2022-10-09T05:13:56.328Z,13.37
2022-10-09T05:16:26.690Z,13.43
2022-10-09T05:18:54.964Z,13.43
2022-10-09T05:21:22.528Z,13.53
2022-10-09T05:23:54.493Z,13.55
2022-10-09T05:26:23.041Z,13.53
2022-10-09T05:28:50.694Z,13.60
2022-10-09T05:31:27.749Z,13.64
2022-10-09T05:33:56.273Z,13.64
2022-10-09T05:36:23.430Z,13.62
2022-10-09T05:38:50.277Z,13.57
2022-10-09T05:41:18.799Z,13.55
2022-10-09T05:43:47.471Z,13.55
2022-10-09T05:46:23.477Z,13.57
2022-10-09T05:49:07.517Z,13.65
2022-10-09T05:51:37.118Z,13.62
2022-10-09T05:54:05.153Z,13.64
2022-10-09T05:56:34.341Z,13.60
2022-10-09T05:59:04.022Z,13.58
2022-10-09T06:01:40.020Z,13.64
2022-10-09T06:04:10.882Z,13.69
2022-10-09T06:06:38.555Z,13.62
2022-10-09T06:09:06.808Z,13.60
2022-10-09T06:11:35.629Z,13.58
2022-10-09T06:14:04.535Z,13.57
2022-10-09T06:16:33.290Z,13.59
2022-10-09T06:19:00.970Z,13.65
2022-10-09T06:21:28.557Z,13.68
2022-10-09T06:24:00.221Z,13.71
2022-10-09T06:26:31.233Z,13.70
2022-10-09T06:28:59.411Z,13.77
2022-10-09T06:31:28.756Z,13.86
2022-10-09T06:33:56.282Z,14.37
2022-10-09T06:36:25.240Z,14.68
2022-10-09T06:38:53.041Z,15.04
2022-10-09T06:41:25.381Z,15.49
2022-10-09T06:43:57.142Z,16.47
2022-10-09T06:46:26.974Z,17.39
2022-10-09T06:48:53.945Z,17.79
2022-10-09T06:51:22.253Z,18.13
2022-10-09T06:53:51.306Z,18.38
2022-10-09T06:56:19.842Z,18.87
2022-10-09T06:58:49.566Z,19.03
2022-10-09T07:01:20.762Z,19.25
2022-10-09T07:03:58.638Z,19.25
2022-10-09T07:06:27.923Z,19.05
2022-10-09T07:08:58.104Z,18.87
2022-10-09T07:11:28.003Z,19.25
2022-10-09T07:13:59.677Z,19.01
2022-10-09T07:16:28.817Z,18.77
2022-10-09T07:18:56.073Z,18.82
2022-10-09T07:21:24.045Z,18.78
2022-10-09T07:23:51.391Z,19.10
2022-10-09T07:26:23.753Z,19.53
2022-10-09T07:28:51.285Z,19.97
2022-10-09T07:31:18.745Z,20.54
2022-10-09T07:33:53.713Z,20.91
2022-10-09T07:36:20.962Z,20.50
2022-10-09T07:38:56.035Z,20.95
2022-10-09T07:41:25.230Z,21.38
2022-10-09T07:43:52.188Z,21.30
2022-10-09T07:46:20.590Z,21.29
2022-10-09T07:48:48.355Z,21.22
2022-10-09T07:51:25.500Z,21.47
2022-10-09T07:53:53.224Z,21.59
2022-10-09T07:56:25.433Z,21.57
2022-10-09T07:58:57.765Z,21.23
2022-10-09T08:01:25.577Z,21.53
2022-10-09T08:03:52.715Z,22.03
2022-10-09T08:06:22.971Z,22.59
2022-10-09T08:08:54.718Z,22.64
2022-10-09T08:11:24.001Z,22.38
2022-10-09T08:13:51.402Z,22.02
2022-10-09T08:16:22.419Z,21.63
2022-10-09T08:18:49.781Z,22.13
2022-10-09T08:21:19.662Z,22.07
2022-10-09T08:23:53.022Z,22.02
2022-10-09T08:26:22.079Z,21.95
2022-10-09T08:28:53.781Z,21.82
2022-10-09T08:31:21.605Z,21.68
2022-10-09T08:33:52.086Z,21.25
2022-10-09T08:36:18.951Z,21.42
2022-10-09T08:38:49.080Z,21.89
2022-10-09T08:41:24.910Z,22.42
2022-10-09T08:43:57.247Z,22.47
2022-10-09T08:46:29.153Z,22.33
2022-10-09T08:48:56.396Z,22.69
2022-10-09T08:51:26.382Z,22.74
2022-10-09T08:54:04.822Z,22.50
2022-10-09T08:56:33.342Z,22.65
2022-10-09T08:59:01.990Z,21.18
2022-10-09T09:01:45.363Z,22.00
2022-10-09T09:04:25.671Z,22.20
2022-10-09T09:07:19.410Z,20.65
2022-10-09T09:10:03.716Z,22.36
2022-10-09T09:13:13.542Z,21.00
2022-10-09T09:15:40.585Z,22.45
2022-10-09T09:18:32.026Z,23.62
2022-10-09T09:21:05.462Z,23.42
2022-10-09T09:23:38.507Z,22.55
2022-10-09T09:26:12.537Z,21.80
2022-10-09T09:28:39.798Z,22.23
2022-10-09T09:31:13.363Z,23.47
2022-10-09T09:33:45.102Z,23.39
2022-10-09T09:36:20.077Z,21.56
2022-10-09T09:39:32.471Z,21.31
2022-10-09T09:41:39.367Z,20.92
2022-10-09T09:44:06.339Z,20.47
2022-10-09T09:46:34.145Z,20.66
2022-10-09T09:49:02.997Z,20.46
2022-10-09T09:51:33.022Z,20.49
2022-10-09T09:54:04.870Z,20.28
2022-10-09T09:56:59.691Z,19.71
2022-10-09T09:59:34.010Z,19.80
2022-10-09T10:02:12.548Z,20.09
2022-10-09T10:05:08.345Z,20.55
2022-10-09T10:07:36.958Z,20.42
2022-10-09T10:10:09.777Z,20.58
2022-10-09T10:12:45.194Z,20.43
2022-10-09T10:15:24.332Z,20.47
2022-10-09T10:18:06.571Z,20.32
2022-10-09T10:20:43.266Z,20.25
2022-10-09T10:23:38.093Z,19.87
2022-10-09T10:26:36.905Z,19.75
2022-10-09T10:29:09.172Z,19.62
2022-10-09T10:31:57.358Z,19.63
2022-10-09T10:34:31.070Z,20.33
2022-10-09T10:37:13.261Z,20.88
2022-10-09T10:39:48.797Z,20.58
2022-10-09T10:42:22.813Z,20.25
2022-10-09T10:44:57.782Z,19.99
2022-10-09T10:47:27.865Z,19.92
2022-10-09T10:49:54.758Z,19.61
2022-10-09T10:52:31.154Z,20.18
2022-10-09T10:55:22.067Z,20.57
2022-10-09T10:58:29.132Z,20.64
2022-10-09T11:01:16.291Z,20.19
2022-10-09T11:04:15.511Z,20.50
2022-10-09T11:06:56.661Z,20.70
2022-10-09T11:09:31.968Z,20.86
2022-10-09T11:12:48.262Z,21.14
2022-10-09T11:15:56.947Z,20.37
2022-10-09T11:18:50.237Z,20.45
2022-10-09T11:21:42.605Z,20.79
2022-10-09T11:24:21.738Z,20.01
2022-10-09T11:27:03.030Z,19.86
2022-10-09T11:29:38.884Z,19.86
2022-10-09T11:32:21.873Z,20.33
2022-10-09T11:35:12.167Z,20.84
2022-10-09T11:37:41.089Z,20.48
2022-10-09T11:40:24.437Z,20.63
2022-10-09T11:43:04.575Z,20.12
2022-10-09T11:45:58.071Z,20.37
2022-10-09T11:48:37.287Z,20.62
2022-10-09T11:51:33.673Z,20.05
2022-10-09T11:54:01.229Z,20.04
2022-10-09T11:56:32.169Z,20.57
2022-10-09T11:59:06.600Z,20.87
2022-10-09T12:01:40.262Z,21.13
2022-10-09T12:04:09.025Z,21.40
2022-10-09T12:06:48.610Z,21.31
2022-10-09T12:09:21.316Z,21.41
2022-10-09T12:11:57.986Z,20.65
2022-10-09T12:14:27.201Z,20.40
2022-10-09T12:16:54.271Z,19.96
2022-10-09T12:19:30.735Z,19.97
2022-10-09T12:22:05.847Z,20.10
2022-10-09T12:24:45.914Z,19.83
2022-10-09T12:27:28.803Z,19.93
2022-10-09T12:30:05.624Z,19.63
2022-10-09T12:32:36.840Z,19.69
2022-10-09T12:35:36.134Z,19.58
2022-10-09T12:38:16.119Z,19.74
2022-10-09T12:40:46.981Z,20.06
2022-10-09T12:43:18.573Z,20.11
2022-10-09T12:45:47.370Z,19.93
2022-10-09T12:48:14.558Z,20.08
2022-10-09T12:50:41.417Z,20.45
2022-10-09T12:53:27.411Z,20.67
2022-10-09T12:56:00.930Z,20.71
2022-10-09T12:58:30.438Z,20.73
2022-10-09T13:01:06.119Z,21.16
2022-10-09T13:03:37.369Z,21.36
2022-10-09T13:06:07.492Z,21.42
2022-10-09T13:08:38.834Z,21.31
2022-10-09T13:11:38.068Z,21.36
2022-10-09T13:14:05.089Z,21.70
2022-10-09T13:16:42.885Z,21.88
2022-10-09T13:19:29.389Z,21.98
2022-10-09T13:22:07.096Z,22.02
2022-10-09T13:24:35.863Z,21.94
2022-10-09T13:27:04.197Z,21.80
2022-10-09T13:29:31.503Z,21.82
2022-10-09T13:31:58.750Z,20.52
2022-10-09T13:34:28.303Z,20.26
2022-10-09T13:36:56.136Z,20.19
2022-10-09T13:39:22.992Z,20.45
2022-10-09T13:41:53.005Z,20.17
2022-10-09T13:44:19.929Z,19.89
2022-10-09T13:46:46.805Z,19.70
2022-10-09T13:49:13.926Z,19.56
2022-10-09T13:51:40.819Z,19.60
2022-10-09T13:54:07.701Z,19.87
2022-10-09T13:56:34.857Z,20.06
2022-10-09T13:59:01.719Z,19.75
2022-10-09T14:01:28.622Z,19.54
2022-10-09T14:03:55.819Z,19.32
2022-10-09T14:06:22.917Z,19.84
2022-10-09T14:08:52.789Z,19.98
2022-10-09T14:11:19.950Z,19.79
2022-10-09T14:13:49.885Z,19.68
2022-10-09T14:16:17.204Z,19.75
2022-10-09T14:18:44.342Z,19.97
2022-10-09T14:21:15.223Z,20.29
2022-10-09T14:23:42.940Z,20.23
2022-10-09T14:26:10.381Z,20.12
2022-10-09T14:28:37.493Z,20.06
2022-10-09T14:31:06.497Z,20.04
2022-10-09T14:33:34.001Z,19.97
2022-10-09T14:36:08.726Z,19.89
2022-10-09T14:38:37.612Z,19.75
2022-10-09T14:41:05.342Z,19.72
2022-10-09T14:43:32.526Z,19.54
2022-10-09T14:46:08.441Z,19.42
2022-10-09T14:48:35.722Z,19.41
2022-10-09T14:51:07.416Z,19.35
2022-10-09T14:53:34.319Z,19.41
2022-10-09T14:56:05.839Z,19.19
2022-10-09T14:58:34.179Z,18.94
2022-10-09T15:01:01.524Z,18.87
2022-10-09T15:03:29.591Z,18.81
2022-10-09T15:05:58.010Z,18.73
2022-10-09T15:08:25.933Z,18.60
2022-10-09T15:10:53.063Z,18.51
2022-10-09T15:13:20.158Z,18.45
2022-10-09T15:15:47.221Z,18.39
2022-10-09T15:18:14.159Z,18.27
2022-10-09T15:20:45.361Z,18.25
2022-10-09T15:23:13.167Z,18.20
2022-10-09T15:25:40.094Z,18.08
2022-10-09T15:28:07.280Z,18.17
2022-10-09T15:30:34.184Z,18.08
2022-10-09T15:33:01.950Z,17.98
2022-10-09T15:35:29.054Z,17.89
2022-10-09T15:37:56.009Z,17.87
2022-10-09T15:40:22.846Z,17.85
2022-10-09T15:42:50.146Z,17.75
2022-10-09T15:45:17.279Z,17.73
2022-10-09T15:47:51.581Z,17.60
2022-10-09T15:50:18.812Z,17.46
2022-10-09T15:52:45.773Z,17.31
2022-10-09T15:55:12.638Z,17.16
2022-10-09T15:57:39.742Z,17.01
2022-10-09T16:00:07.187Z,17.02
2022-10-09T16:02:34.315Z,16.90
2022-10-09T16:05:01.186Z,16.72
2022-10-09T16:07:28.047Z,16.58
2022-10-09T16:09:55.169Z,16.53
2022-10-09T16:12:22.013Z,16.45
2022-10-09T16:14:48.918Z,16.31
2022-10-09T16:17:16.029Z,16.21
2022-10-09T16:19:43.028Z,15.95
2022-10-09T16:22:09.922Z,15.83
2022-10-09T16:24:37.044Z,15.81
2022-10-09T16:27:03.935Z,15.70
2022-10-09T16:29:30.773Z,15.63
2022-10-09T16:31:57.883Z,15.51
2022-10-09T16:34:24.726Z,15.37
2022-10-09T16:36:51.603Z,15.37
2022-10-09T16:39:18.710Z,15.44
2022-10-09T16:41:45.583Z,15.49
2022-10-09T16:44:13.942Z,15.41
2022-10-09T16:46:41.041Z,15.28
2022-10-09T16:49:13.632Z,15.25
2022-10-09T16:51:40.488Z,15.30
2022-10-09T16:54:07.591Z,15.25
2022-10-09T16:56:37.429Z,15.34
2022-10-09T16:59:07.410Z,15.30
2022-10-09T17:01:40.236Z,15.29
2022-10-09T17:04:07.074Z,15.20
2022-10-09T17:06:34.332Z,14.99
2022-10-09T17:09:01.231Z,14.93
2022-10-09T17:11:29.862Z,14.80
2022-10-09T17:13:57.836Z,14.70
2022-10-09T17:16:28.161Z,14.62
2022-10-09T17:18:55.359Z,14.52
2022-10-09T17:21:22.899Z,14.48
2022-10-09T17:23:53.534Z,14.39
2022-10-09T17:26:20.960Z,14.34
2022-10-09T17:28:51.481Z,14.22
2022-10-09T17:31:21.851Z,14.16
2022-10-09T17:33:55.749Z,14.23
2022-10-09T17:36:26.241Z,14.12
2022-10-09T17:38:53.529Z,14.07
2022-10-09T17:41:24.549Z,14.01
2022-10-09T17:43:52.577Z,14.01
2022-10-09T17:46:20.302Z,13.98
2022-10-09T17:48:53.187Z,13.96
2022-10-09T17:51:31.455Z,13.94
2022-10-09T17:54:01.197Z,13.88
2022-10-09T17:56:29.594Z,13.83
2022-10-09T17:58:56.493Z,13.80
2022-10-09T18:01:23.866Z,13.86
2022-10-09T18:03:53.791Z,13.97
2022-10-09T18:06:24.159Z,14.06
2022-10-09T18:08:54.366Z,14.15
2022-10-09T18:11:22.748Z,14.26
2022-10-09T18:13:49.623Z,14.36
2022-10-09T18:16:24.972Z,14.72
2022-10-09T18:18:51.913Z,14.96
2022-10-09T18:21:19.071Z,14.86
2022-10-09T18:23:47.158Z,14.62
2022-10-09T18:26:19.323Z,14.52
2022-10-09T18:28:48.440Z,14.57
2022-10-09T18:31:20.755Z,14.47
2022-10-09T18:33:52.048Z,14.40
2022-10-09T18:36:22.812Z,14.39
2022-10-09T18:38:54.668Z,14.33
2022-10-09T18:41:23.182Z,14.30
2022-10-09T18:43:53.967Z,14.13
2022-10-09T18:46:23.136Z,14.04
2022-10-09T18:48:51.333Z,14.11
2022-10-09T18:51:20.533Z,13.94
2022-10-09T18:53:52.994Z,13.78
2022-10-09T18:56:23.450Z,13.67
2022-10-09T18:58:53.546Z,13.59
2022-10-09T19:01:23.745Z,13.58
2022-10-09T19:03:53.812Z,13.58
2022-10-09T19:06:20.989Z,13.48
2022-10-09T19:08:52.543Z,13.50
2022-10-09T19:11:22.490Z,13.50
2022-10-09T19:13:54.125Z,13.55
2022-10-09T19:16:24.353Z,13.53
2022-10-09T19:18:53.260Z,13.51
2022-10-09T19:21:23.092Z,13.51
2022-10-09T19:23:54.147Z,13.56
2022-10-09T19:26:24.242Z,13.67
2022-10-09T19:28:53.983Z,13.83
2022-10-09T19:31:21.075Z,14.04
2022-10-09T19:33:50.791Z,13.98
2022-10-09T19:36:18.047Z,13.89
2022-10-09T19:38:45.668Z,13.93
2022-10-09T19:41:14.609Z,14.06
2022-10-09T19:43:42.219Z,13.95
2022-10-09T19:46:12.066Z,13.84
2022-10-09T19:48:39.046Z,13.71
2022-10-09T19:51:11.750Z,13.55
2022-10-09T19:53:38.903Z,13.41
2022-10-09T19:56:20.110Z,13.51
2022-10-09T19:58:51.101Z,13.41
2022-10-09T20:01:23.395Z,13.32
2022-10-09T20:03:58.020Z,13.29
2022-10-09T20:06:25.102Z,13.34
2022-10-09T20:08:52.310Z,13.25
2022-10-09T20:11:22.655Z,13.21
2022-10-09T20:13:55.938Z,13.19
2022-10-09T20:16:24.723Z,13.04
2022-10-09T20:18:51.654Z,12.99
2022-10-09T20:21:18.693Z,12.95
2022-10-09T20:23:46.012Z,12.96
2022-10-09T20:26:18.336Z,12.99
2022-10-09T20:28:46.320Z,12.95
2022-10-09T20:31:18.249Z,12.97
2022-10-09T20:33:45.842Z,12.86
2022-10-09T20:36:25.367Z,12.72
2022-10-09T20:38:55.223Z,12.66
2022-10-09T20:41:22.475Z,12.66
2022-10-09T20:43:51.053Z,12.50
2022-10-09T20:46:23.662Z,12.52
2022-10-09T20:48:53.801Z,12.41
2022-10-09T20:51:24.168Z,12.26
2022-10-09T20:53:56.211Z,12.18
2022-10-09T20:56:24.942Z,12.21
2022-10-09T20:58:52.113Z,12.09
2022-10-09T21:01:19.275Z,12.01
2022-10-09T21:03:48.492Z,11.97
2022-10-09T21:06:18.294Z,11.97
2022-10-09T21:08:45.236Z,11.89
2022-10-09T21:11:13.992Z,11.87
2022-10-09T21:13:41.654Z,11.87
2022-10-09T21:16:11.907Z,11.94
2022-10-09T21:18:39.157Z,11.90
2022-10-09T21:21:13.526Z,11.73
2022-10-09T21:23:41.348Z,11.79
2022-10-09T21:26:16.403Z,11.82
2022-10-09T21:28:46.434Z,11.80
2022-10-09T21:31:20.626Z,11.70
2022-10-09T21:33:48.258Z,11.68
2022-10-09T21:36:32.943Z,11.62
2022-10-09T21:39:00.167Z,11.57
2022-10-09T21:41:27.214Z,11.57
2022-10-09T21:43:54.996Z,11.58
2022-10-09T21:46:22.794Z,11.50
2022-10-09T21:48:49.800Z,11.47
2022-10-09T21:51:18.094Z,11.40
2022-10-09T21:53:45.282Z,11.35
2022-10-09T21:56:12.147Z,11.38
2022-10-09T21:58:40.287Z,11.40
2022-10-09T22:01:07.788Z,11.34
2022-10-09T22:03:36.612Z,11.23
2022-10-09T22:06:06.564Z,11.24
2022-10-09T22:08:33.951Z,11.12
2022-10-09T22:11:04.037Z,11.11
2022-10-09T22:13:30.877Z,11.14
2022-10-09T22:15:57.733Z,11.17
2022-10-09T22:18:24.867Z,11.18
2022-10-09T22:20:51.785Z,11.22
2022-10-09T22:23:20.140Z,11.12
2022-10-09T22:25:58.174Z,11.03
2022-10-09T22:28:25.198Z,10.99
2022-10-09T22:31:06.927Z,10.96
2022-10-09T22:33:34.826Z,10.96
2022-10-09T22:36:13.070Z,10.81
2022-10-09T22:38:40.606Z,10.96
2022-10-09T22:41:22.013Z,11.01
2022-10-09T22:43:53.470Z,10.89
2022-10-09T22:46:30.032Z,10.76
2022-10-09T22:48:57.053Z,10.75
2022-10-09T22:51:26.051Z,10.63
2022-10-09T22:53:53.099Z,10.57
2022-10-09T22:56:29.080Z,10.51
2022-10-09T22:58:56.198Z,10.45
2022-10-09T23:01:29.925Z,10.47
2022-10-09T23:04:02.325Z,10.47
2022-10-09T23:06:29.192Z,10.48
2022-10-09T23:08:56.547Z,10.48
2022-10-09T23:11:23.743Z,10.41
2022-10-09T23:13:55.715Z,10.36
2022-10-09T23:16:26.822Z,10.32
2022-10-09T23:18:54.238Z,10.22
2022-10-09T23:21:22.956Z,10.15
2022-10-09T23:23:50.715Z,10.18
2022-10-09T23:26:26.569Z,10.29
2022-10-09T23:28:56.049Z,10.22
2022-10-09T23:31:24.143Z,10.15
2022-10-09T23:33:51.205Z,10.19
2022-10-09T23:36:22.801Z,10.07
2022-10-09T23:38:49.987Z,9.98
2022-10-09T23:41:21.828Z,9.94
2022-10-09T23:43:52.182Z,10.01
2022-10-09T23:46:24.475Z,10.01
2022-10-09T23:48:54.503Z,10.02
2022-10-09T23:51:25.577Z,9.97
2022-10-09T23:53:56.138Z,10.10
2022-10-09T23:56:28.366Z,10.00
2022-10-09T23:58:56.378Z,9.92
